sensor_id;sensor_type;location;lat;lon;timestamp;pressure;altitude;pressure_sealevel;temperature;humidity
41222;BME280;26952;42.884;23.918;2022-08-05T00:01:46;95916.63;;;18.40;68.81
41222;BME280;26952;42.884;23.918;2022-08-05T00:04:11;95915.75;;;18.46;69.98
41222;BME280;26952;42.884;23.918;2022-08-05T00:06:36;95910.41;;;18.46;69.43
41222;BME280;26952;42.884;23.918;2022-08-05T00:09:03;95920.28;;;18.46;70.64
41222;BME280;26952;42.884;23.918;2022-08-05T00:11:29;95908.97;;;18.44;69.83
41222;BME280;26952;42.884;23.918;2022-08-05T00:13:55;95911.63;;;18.44;69.95
41222;BME280;26952;42.884;23.918;2022-08-05T00:16:20;95909.56;;;18.46;69.72
41222;BME280;26952;42.884;23.918;2022-08-05T00:18:47;95896.84;;;18.35;70.22
41222;BME280;26952;42.884;23.918;2022-08-05T00:21:14;95900.56;;;18.34;70.76
41222;BME280;26952;42.884;23.918;2022-08-05T00:23:41;95908.03;;;18.32;69.81
41222;BME280;26952;42.884;23.918;2022-08-05T00:26:07;95903.94;;;18.23;70.09
41222;BME280;26952;42.884;23.918;2022-08-05T00:28:33;95894.50;;;18.20;70.68
41222;BME280;26952;42.884;23.918;2022-08-05T00:30:59;95899.03;;;18.20;71.57
41222;BME280;26952;42.884;23.918;2022-08-05T00:33:25;95902.94;;;18.24;71.91
41222;BME280;26952;42.884;23.918;2022-08-05T00:35:50;95896.63;;;18.12;71.75
41222;BME280;26952;42.884;23.918;2022-08-05T00:38:16;95909.59;;;18.15;72.19
41222;BME280;26952;42.884;23.918;2022-08-05T00:40:50;95891.25;;;18.12;70.84
41222;BME280;26952;42.884;23.918;2022-08-05T00:43:16;95897.50;;;18.06;72.75
41222;BME280;26952;42.884;23.918;2022-08-05T00:45:42;95874.94;;;17.88;72.95
41222;BME280;26952;42.884;23.918;2022-08-05T00:48:15;95893.44;;;17.96;73.47
41222;BME280;26952;42.884;23.918;2022-08-05T00:50:43;95890.53;;;17.98;72.78
41222;BME280;26952;42.884;23.918;2022-08-05T00:53:08;95897.34;;;18.01;73.16
41222;BME280;26952;42.884;23.918;2022-08-05T00:55:34;95903.72;;;17.99;73.68
41222;BME280;26952;42.884;23.918;2022-08-05T00:58:00;95890.53;;;17.98;72.79
41222;BME280;26952;42.884;23.918;2022-08-05T01:00:27;95889.28;;;18.01;71.76
41222;BME280;26952;42.884;23.918;2022-08-05T01:02:53;95895.03;;;18.04;71.93
41222;BME280;26952;42.884;23.918;2022-08-05T01:05:18;95897.94;;;18.03;72.85
41222;BME280;26952;42.884;23.918;2022-08-05T01:07:44;95887.41;;;18.01;71.63
41222;BME280;26952;42.884;23.918;2022-08-05T01:10:12;95886.06;;;17.92;72.62
41222;BME280;26952;42.884;23.918;2022-08-05T01:12:44;95888.06;;;17.96;72.08
41222;BME280;26952;42.884;23.918;2022-08-05T01:15:12;95879.28;;;17.89;72.87
41222;BME280;26952;42.884;23.918;2022-08-05T01:17:44;95891.63;;;17.90;73.23
41222;BME280;26952;42.884;23.918;2022-08-05T01:29:04;95879.91;;;17.85;72.26
41222;BME280;26952;42.884;23.918;2022-08-05T01:31:51;95881.66;;;17.73;73.56
41222;BME280;26952;42.884;23.918;2022-08-05T01:34:23;95879.59;;;17.75;72.87
41222;BME280;26952;42.884;23.918;2022-08-05T01:37:00;95889.03;;;17.77;73.40
41222;BME280;26952;42.884;23.918;2022-08-05T01:39:28;95877.53;;;17.70;73.63
41222;BME280;26952;42.884;23.918;2022-08-05T01:41:54;95892.00;;;17.63;74.45
41222;BME280;26952;42.884;23.918;2022-08-05T01:44:22;95897.16;;;17.64;74.93
41222;BME280;26952;42.884;23.918;2022-08-05T01:46:48;95881.13;;;17.58;74.57
41222;BME280;26952;42.884;23.918;2022-08-05T01:49:19;95883.63;;;17.53;75.52
41222;BME280;26952;42.884;23.918;2022-08-05T01:51:46;95893.28;;;17.60;75.51
41222;BME280;26952;42.884;23.918;2022-08-05T01:54:13;95888.09;;;17.59;75.51
41222;BME280;26952;42.884;23.918;2022-08-05T01:56:41;95885.06;;;17.55;75.17
41222;BME280;26952;42.884;23.918;2022-08-05T01:59:16;95888.94;;;17.59;73.88
41222;BME280;26952;42.884;23.918;2022-08-05T02:01:42;95876.84;;;17.50;73.46
41222;BME280;26952;42.884;23.918;2022-08-05T02:04:09;95860.50;;;17.21;75.16
41222;BME280;26952;42.884;23.918;2022-08-05T02:06:37;95864.81;;;17.22;75.95
41222;BME280;26952;42.884;23.918;2022-08-05T02:09:03;95889.03;;;17.33;76.70
41222;BME280;26952;42.884;23.918;2022-08-05T02:11:39;95884.72;;;17.32;76.55
41222;BME280;26952;42.884;23.918;2022-08-05T02:14:25;95867.75;;;17.07;76.99
41222;BME280;26952;42.884;23.918;2022-08-05T02:16:53;95883.38;;;17.10;77.23
41222;BME280;26952;42.884;23.918;2022-08-05T02:25:17;95884.00;;;17.06;79.31
41222;BME280;26952;42.884;23.918;2022-08-05T02:27:44;95875.00;;;17.00;78.88
41222;BME280;26952;42.884;23.918;2022-08-05T02:30:14;95852.38;;;16.90;78.15
41222;BME280;26952;42.884;23.918;2022-08-05T02:32:42;95883.44;;;16.97;78.25
41222;BME280;26952;42.884;23.918;2022-08-05T02:35:14;95875.00;;;17.00;77.50
41222;BME280;26952;42.884;23.918;2022-08-05T02:37:41;95851.22;;;16.79;78.12
41222;BME280;26952;42.884;23.918;2022-08-05T02:40:08;95868.03;;;16.86;78.44
41222;BME280;26952;42.884;23.918;2022-08-05T02:42:34;95877.06;;;16.92;78.46
41222;BME280;26952;42.884;23.918;2022-08-05T02:45:01;95876.25;;;16.91;78.21
41222;BME280;26952;42.884;23.918;2022-08-05T02:47:29;95869.31;;;16.77;78.59
41222;BME280;26952;42.884;23.918;2022-08-05T02:49:56;95880.00;;;16.71;80.33
41222;BME280;26952;42.884;23.918;2022-08-05T02:52:22;95878.78;;;16.67;79.95
41222;BME280;26952;42.884;23.918;2022-08-05T02:54:49;95874.91;;;16.49;81.66
41222;BME280;26952;42.884;23.918;2022-08-05T02:57:17;95889.13;;;16.50;81.89
41222;BME280;26952;42.884;23.918;2022-08-05T02:59:47;95889.88;;;16.44;82.46
41222;BME280;26952;42.884;23.918;2022-08-05T03:02:19;95881.06;;;16.43;83.06
41222;BME280;26952;42.884;23.918;2022-08-05T03:04:45;95871.81;;;16.39;83.37
41222;BME280;26952;42.884;23.918;2022-08-05T03:07:12;95869.56;;;16.43;82.75
41222;BME280;26952;42.884;23.918;2022-08-05T03:09:39;95882.72;;;16.51;82.32
41222;BME280;26952;42.884;23.918;2022-08-05T03:12:06;95875.94;;;16.42;81.20
41222;BME280;26952;42.884;23.918;2022-08-05T03:14:32;95891.97;;;16.42;82.17
41222;BME280;26952;42.884;23.918;2022-08-05T03:16:58;95882.94;;;16.30;82.97
41222;BME280;26952;42.884;23.918;2022-08-05T03:19:24;95892.78;;;16.29;83.07
41222;BME280;26952;42.884;23.918;2022-08-05T03:21:50;95887.44;;;16.36;82.89
41222;BME280;26952;42.884;23.918;2022-08-05T03:24:17;95885.38;;;16.38;82.51
41222;BME280;26952;42.884;23.918;2022-08-05T03:26:43;95884.16;;;16.34;82.92
41222;BME280;26952;42.884;23.918;2022-08-05T03:29:09;95895.66;;;16.34;83.76
41222;BME280;26952;42.884;23.918;2022-08-05T03:31:34;95893.19;;;16.39;84.29
41222;BME280;26952;42.884;23.918;2022-08-05T03:34:00;95887.44;;;16.42;84.11
41222;BME280;26952;42.884;23.918;2022-08-05T03:36:25;95880.25;;;16.43;84.03
41222;BME280;26952;42.884;23.918;2022-08-05T03:38:51;95883.34;;;16.53;84.54
41222;BME280;26952;42.884;23.918;2022-08-05T03:41:17;95880.06;;;16.51;83.32
41222;BME280;26952;42.884;23.918;2022-08-05T03:43:42;95890.72;;;16.64;81.83
41222;BME280;26952;42.884;23.918;2022-08-05T03:46:08;95888.06;;;16.64;81.98
41222;BME280;26952;42.884;23.918;2022-08-05T03:48:34;95897.34;;;17.12;82.09
41222;BME280;26952;42.884;23.918;2022-08-05T03:53:33;95889.59;;;19.68;70.98
41222;BME280;26952;42.884;23.918;2022-08-05T03:56:06;95891.94;;;21.05;64.76
41222;BME280;26952;42.884;23.918;2022-08-05T03:58:35;95902.53;;;22.30;59.27
41222;BME280;26952;42.884;23.918;2022-08-05T04:01:03;95893.56;;;23.29;55.31
41222;BME280;26952;42.884;23.918;2022-08-05T04:03:33;95881.19;;;24.29;51.33
41222;BME280;26952;42.884;23.918;2022-08-05T04:06:01;95893.53;;;25.20;48.91
41222;BME280;26952;42.884;23.918;2022-08-05T04:08:27;95890.13;;;26.12;46.47
41222;BME280;26952;42.884;23.918;2022-08-05T04:10:57;95897.25;;;26.93;44.62
41222;BME280;26952;42.884;23.918;2022-08-05T04:13:23;95897.13;;;27.58;42.47
41222;BME280;26952;42.884;23.918;2022-08-05T04:15:49;95904.25;;;28.13;41.77
41222;BME280;26952;42.884;23.918;2022-08-05T04:18:15;95902.53;;;28.71;39.92
41222;BME280;26952;42.884;23.918;2022-08-05T04:20:40;95896.38;;;28.89;39.34
41222;BME280;26952;42.884;23.918;2022-08-05T04:23:07;95901.66;;;29.61;37.91
41222;BME280;26952;42.884;23.918;2022-08-05T04:25:34;95889.22;;;29.97;37.05
41222;BME280;26952;42.884;23.918;2022-08-05T04:27:59;95895.22;;;30.18;36.96
41222;BME280;26952;42.884;23.918;2022-08-05T04:30:25;95879.06;;;30.58;36.04
41222;BME280;26952;42.884;23.918;2022-08-05T04:32:50;95899.13;;;31.18;35.20
41222;BME280;26952;42.884;23.918;2022-08-05T04:35:16;95907.47;;;31.27;35.23
41222;BME280;26952;42.884;23.918;2022-08-05T04:37:41;95896.69;;;31.35;35.41
41222;BME280;26952;42.884;23.918;2022-08-05T04:40:07;95905.59;;;31.08;35.38
41222;BME280;26952;42.884;23.918;2022-08-05T04:42:32;95895.22;;;30.92;35.56
41222;BME280;26952;42.884;23.918;2022-08-05T04:44:58;95895.47;;;30.77;35.69
41222;BME280;26952;42.884;23.918;2022-08-05T04:47:23;95894.22;;;30.51;36.18
41222;BME280;26952;42.884;23.918;2022-08-05T04:49:49;95889.75;;;30.18;37.63
41222;BME280;26952;42.884;23.918;2022-08-05T04:52:14;95874.94;;;29.58;37.92
41222;BME280;26952;42.884;23.918;2022-08-05T04:54:40;95876.63;;;29.30;39.33
41222;BME280;26952;42.884;23.918;2022-08-05T04:57:05;95881.25;;;29.30;39.17
41222;BME280;26952;42.884;23.918;2022-08-05T04:59:31;95890.91;;;28.55;42.61
41222;BME280;26952;42.884;23.918;2022-08-05T05:01:56;95886.16;;;27.83;43.08
41222;BME280;26952;42.884;23.918;2022-08-05T05:04:23;95881.41;;;27.45;44.62
41222;BME280;26952;42.884;23.918;2022-08-05T05:06:48;95878.75;;;27.20;45.94
41222;BME280;26952;42.884;23.918;2022-08-05T05:09:13;95877.44;;;26.92;46.33
41222;BME280;26952;42.884;23.918;2022-08-05T05:11:39;95875.47;;;27.13;47.31
41222;BME280;26952;42.884;23.918;2022-08-05T05:14:04;95873.28;;;27.25;46.11
41222;BME280;26952;42.884;23.918;2022-08-05T05:16:30;95869.44;;;27.46;44.95
41222;BME280;26952;42.884;23.918;2022-08-05T05:18:56;95880.78;;;27.68;44.24
41222;BME280;26952;42.884;23.918;2022-08-05T05:21:21;95883.19;;;27.75;45.70
41222;BME280;26952;42.884;23.918;2022-08-05T05:23:47;95874.44;;;27.88;45.76
41222;BME280;26952;42.884;23.918;2022-08-05T05:26:12;95868.06;;;28.12;44.58
41222;BME280;26952;42.884;23.918;2022-08-05T05:28:38;95877.59;;;28.05;42.67
41222;BME280;26952;42.884;23.918;2022-08-05T05:31:03;95869.91;;;28.22;44.34
41222;BME280;26952;42.884;23.918;2022-08-05T05:33:29;95873.03;;;28.39;42.95
41222;BME280;26952;42.884;23.918;2022-08-05T05:35:54;95881.94;;;28.55;40.85
41222;BME280;26952;42.884;23.918;2022-08-05T05:38:19;95881.53;;;28.71;41.65
41222;BME280;26952;42.884;23.918;2022-08-05T05:40:45;95879.09;;;28.70;41.54
41222;BME280;26952;42.884;23.918;2022-08-05T05:43:10;95867.78;;;28.52;41.87
41222;BME280;26952;42.884;23.918;2022-08-05T05:45:36;95884.88;;;28.19;41.86
41222;BME280;26952;42.884;23.918;2022-08-05T05:48:02;95885.06;;;27.84;44.36
41222;BME280;26952;42.884;23.918;2022-08-05T05:50:31;95879.00;;;27.29;41.57
41222;BME280;26952;42.884;23.918;2022-08-05T05:52:57;95886.66;;;27.01;43.17
41222;BME280;26952;42.884;23.918;2022-08-05T05:55:22;95883.16;;;26.86;43.43
41222;BME280;26952;42.884;23.918;2022-08-05T05:57:47;95887.75;;;26.45;44.05
41222;BME280;26952;42.884;23.918;2022-08-05T06:00:16;95885.25;;;26.19;43.82
41222;BME280;26952;42.884;23.918;2022-08-05T06:02:42;95889.59;;;26.05;42.97
41222;BME280;26952;42.884;23.918;2022-08-05T06:05:09;95893.38;;;26.14;44.99
41222;BME280;26952;42.884;23.918;2022-08-05T06:07:35;95886.09;;;26.19;43.87
41222;BME280;26952;42.884;23.918;2022-08-05T06:10:01;95896.13;;;26.24;42.92
41222;BME280;26952;42.884;23.918;2022-08-05T06:12:26;95890.72;;;26.29;42.42
41222;BME280;26952;42.884;23.918;2022-08-05T06:14:52;95897.75;;;26.10;44.00
41222;BME280;26952;42.884;23.918;2022-08-05T06:17:17;95899.38;;;26.16;43.41
41222;BME280;26952;42.884;23.918;2022-08-05T06:19:43;95900.72;;;26.23;44.01
41222;BME280;26952;42.884;23.918;2022-08-05T06:22:08;95897.50;;;26.36;45.17
41222;BME280;26952;42.884;23.918;2022-08-05T06:24:34;95902.13;;;26.61;43.82
41222;BME280;26952;42.884;23.918;2022-08-05T06:27:01;95894.03;;;26.81;43.88
41222;BME280;26952;42.884;23.918;2022-08-05T06:29:26;95912.16;;;27.15;44.09
41222;BME280;26952;42.884;23.918;2022-08-05T06:31:52;95890.66;;;27.49;43.25
41222;BME280;26952;42.884;23.918;2022-08-05T06:34:17;95893.78;;;27.81;42.00
41222;BME280;26952;42.884;23.918;2022-08-05T06:36:43;95894.16;;;28.18;40.37
41222;BME280;26952;42.884;23.918;2022-08-05T06:39:08;95893.13;;;28.53;41.66
41222;BME280;26952;42.884;23.918;2022-08-05T06:41:34;95895.59;;;28.83;39.97
41222;BME280;26952;42.884;23.918;2022-08-05T06:43:59;95895.59;;;29.17;41.23
41222;BME280;26952;42.884;23.918;2022-08-05T06:46:25;95894.13;;;29.53;38.18
41222;BME280;26952;42.884;23.918;2022-08-05T06:48:50;95885.28;;;29.84;37.38
41222;BME280;26952;42.884;23.918;2022-08-05T06:51:16;95891.47;;;30.14;38.05
41222;BME280;26952;42.884;23.918;2022-08-05T06:53:41;95898.88;;;30.50;36.71
41222;BME280;26952;42.884;23.918;2022-08-05T06:56:07;95892.97;;;30.43;36.69
41222;BME280;26952;42.884;23.918;2022-08-05T06:58:32;95896.50;;;30.62;36.78
41222;BME280;26952;42.884;23.918;2022-08-05T07:01:01;95891.72;;;30.12;37.19
41222;BME280;26952;42.884;23.918;2022-08-05T07:03:27;95888.63;;;30.00;35.94
41222;BME280;26952;42.884;23.918;2022-08-05T07:05:54;95890.47;;;30.28;36.47
41222;BME280;26952;42.884;23.918;2022-08-05T07:08:20;95885.13;;;30.55;37.29
41222;BME280;26952;42.884;23.918;2022-08-05T07:10:49;95881.44;;;30.83;37.03
41222;BME280;26952;42.884;23.918;2022-08-05T07:13:14;95898.03;;;30.87;35.37
41222;BME280;26952;42.884;23.918;2022-08-05T07:15:58;95891.31;;;30.61;34.71
41222;BME280;26952;42.884;23.918;2022-08-05T07:18:42;95888.16;;;30.17;35.66
41222;BME280;26952;42.884;23.918;2022-08-05T07:21:08;95893.78;;;30.44;35.45
41222;BME280;26952;42.884;23.918;2022-08-05T07:23:33;95893.22;;;31.11;37.07
41222;BME280;26952;42.884;23.918;2022-08-05T07:25:59;95880.38;;;31.71;33.89
41222;BME280;26952;42.884;23.918;2022-08-05T07:28:25;95891.94;;;31.95;32.90
41222;BME280;26952;42.884;23.918;2022-08-05T07:30:50;95883.78;;;32.17;32.84
41222;BME280;26952;42.884;23.918;2022-08-05T07:33:16;95882.88;;;32.57;31.48
41222;BME280;26952;42.884;23.918;2022-08-05T07:35:42;95876.66;;;32.65;31.27
41222;BME280;26952;42.884;23.918;2022-08-05T07:38:07;95882.63;;;32.67;29.55
41222;BME280;26952;42.884;23.918;2022-08-05T07:40:32;95888.63;;;32.47;30.28
41222;BME280;26952;42.884;23.918;2022-08-05T07:42:58;95885.72;;;32.52;31.92
41222;BME280;26952;42.884;23.918;2022-08-05T07:45:23;95895.94;;;32.38;30.02
41222;BME280;26952;42.884;23.918;2022-08-05T07:47:49;95886.91;;;32.37;29.81
41222;BME280;26952;42.884;23.918;2022-08-05T07:50:14;95883.38;;;31.83;31.78
41222;BME280;26952;42.884;23.918;2022-08-05T07:52:41;95889.38;;;32.12;32.71
41222;BME280;26952;42.884;23.918;2022-08-05T07:55:08;95876.47;;;32.26;33.14
41222;BME280;26952;42.884;23.918;2022-08-05T07:57:34;95896.41;;;32.89;32.43
41222;BME280;26952;42.884;23.918;2022-08-05T08:00:00;95889.53;;;33.00;29.58
41222;BME280;26952;42.884;23.918;2022-08-05T08:02:27;95896.50;;;33.06;32.10
41222;BME280;26952;42.884;23.918;2022-08-05T08:04:53;95878.50;;;32.78;28.23
41222;BME280;26952;42.884;23.918;2022-08-05T08:07:19;95891.91;;;32.93;27.92
41222;BME280;26952;42.884;23.918;2022-08-05T08:09:45;95886.38;;;33.15;27.23
41222;BME280;26952;42.884;23.918;2022-08-05T08:12:11;95885.44;;;32.89;29.05
41222;BME280;26952;42.884;23.918;2022-08-05T08:14:43;95892.47;;;33.34;28.28
41222;BME280;26952;42.884;23.918;2022-08-05T08:17:09;95885.50;;;33.98;29.39
41222;BME280;26952;42.884;23.918;2022-08-05T08:19:38;95879.81;;;34.51;28.80
41222;BME280;26952;42.884;23.918;2022-08-05T08:22:04;95881.25;;;34.74;26.56
41222;BME280;26952;42.884;23.918;2022-08-05T08:24:30;95888.88;;;34.51;26.17
41222;BME280;26952;42.884;23.918;2022-08-05T08:26:55;95879.41;;;34.18;27.59
41222;BME280;26952;42.884;23.918;2022-08-05T08:29:21;95876.22;;;34.33;27.18
41222;BME280;26952;42.884;23.918;2022-08-05T08:31:47;95884.66;;;33.50;27.38
41222;BME280;26952;42.884;23.918;2022-08-05T08:34:12;95879.78;;;33.16;27.88
41222;BME280;26952;42.884;23.918;2022-08-05T08:36:38;95876.97;;;33.08;28.73
41222;BME280;26952;42.884;23.918;2022-08-05T08:39:03;95880.50;;;33.30;29.14
41222;BME280;26952;42.884;23.918;2022-08-05T08:41:32;95881.63;;;33.60;28.20
41222;BME280;26952;42.884;23.918;2022-08-05T08:43:58;95879.13;;;33.81;28.57
41222;BME280;26952;42.884;23.918;2022-08-05T08:46:30;95873.22;;;33.56;28.13
41222;BME280;26952;42.884;23.918;2022-08-05T08:48:56;95871.63;;;33.64;28.12
41222;BME280;26952;42.884;23.918;2022-08-05T08:51:22;95862.97;;;33.79;27.89
41222;BME280;26952;42.884;23.918;2022-08-05T08:53:48;95873.88;;;33.93;28.57
41222;BME280;26952;42.884;23.918;2022-08-05T08:56:14;95858.88;;;34.16;27.24
41222;BME280;26952;42.884;23.918;2022-08-05T08:58:40;95865.25;;;34.59;27.83
41222;BME280;26952;42.884;23.918;2022-08-05T09:01:06;95860.53;;;34.68;28.50
41222;BME280;26952;42.884;23.918;2022-08-05T09:03:33;95854.84;;;33.65;27.14
41222;BME280;26952;42.884;23.918;2022-08-05T09:05:59;95849.75;;;33.90;28.98
41222;BME280;26952;42.884;23.918;2022-08-05T09:08:24;95850.94;;;34.14;26.85
41222;BME280;26952;42.884;23.918;2022-08-05T09:10:50;95845.59;;;34.01;27.83
41222;BME280;26952;42.884;23.918;2022-08-05T09:13:16;95840.09;;;34.01;27.15
41222;BME280;26952;42.884;23.918;2022-08-05T09:15:44;95833.09;;;33.86;27.60
41222;BME280;26952;42.884;23.918;2022-08-05T09:18:09;95844.59;;;33.18;28.15
41222;BME280;26952;42.884;23.918;2022-08-05T09:20:36;95841.53;;;32.89;27.91
41222;BME280;26952;42.884;23.918;2022-08-05T09:23:09;95834.47;;;33.27;27.98
41222;BME280;26952;42.884;23.918;2022-08-05T09:25:40;95838.00;;;33.98;29.26
41222;BME280;26952;42.884;23.918;2022-08-05T09:28:21;95841.41;;;33.64;27.28
41222;BME280;26952;42.884;23.918;2022-08-05T09:31:00;95827.53;;;33.69;28.29
41222;BME280;26952;42.884;23.918;2022-08-05T09:33:30;95813.31;;;32.75;29.01
41222;BME280;26952;42.884;23.918;2022-08-05T09:36:03;95841.31;;;32.28;29.05
41222;BME280;26952;42.884;23.918;2022-08-05T09:38:29;95824.03;;;32.85;28.73
41222;BME280;26952;42.884;23.918;2022-08-05T09:41:06;95825.13;;;33.76;27.38
41222;BME280;26952;42.884;23.918;2022-08-05T09:43:32;95835.63;;;33.65;27.01
41222;BME280;26952;42.884;23.918;2022-08-05T09:45:58;95823.19;;;33.68;27.74
41222;BME280;26952;42.884;23.918;2022-08-05T09:48:26;95821.66;;;33.93;26.48
41222;BME280;26952;42.884;23.918;2022-08-05T09:50:55;95812.97;;;33.60;27.24
41222;BME280;26952;42.884;23.918;2022-08-05T09:53:21;95825.66;;;33.08;28.26
41222;BME280;26952;42.884;23.918;2022-08-05T09:55:50;95826.00;;;32.27;28.45
41222;BME280;26952;42.884;23.918;2022-08-05T09:58:15;95810.66;;;32.62;29.53
41222;BME280;26952;42.884;23.918;2022-08-05T10:00:57;95813.56;;;32.65;29.10
41222;BME280;26952;42.884;23.918;2022-08-05T10:03:23;95813.44;;;32.70;29.43
41222;BME280;26952;42.884;23.918;2022-08-05T10:06:06;95811.56;;;32.57;29.52
41222;BME280;26952;42.884;23.918;2022-08-05T10:08:35;95805.34;;;33.18;29.03
41222;BME280;26952;42.884;23.918;2022-08-05T10:11:02;95814.75;;;33.25;29.00
41222;BME280;26952;42.884;23.918;2022-08-05T10:13:36;95811.25;;;32.81;29.01
41222;BME280;26952;42.884;23.918;2022-08-05T10:16:03;95805.75;;;32.50;30.50
41222;BME280;26952;42.884;23.918;2022-08-05T10:18:30;95804.66;;;32.37;29.69
41222;BME280;26952;42.884;23.918;2022-08-05T10:21:01;95804.41;;;32.12;29.81
41222;BME280;26952;42.884;23.918;2022-08-05T10:23:28;95799.88;;;32.43;30.08
41222;BME280;26952;42.884;23.918;2022-08-05T10:26:05;95808.22;;;32.38;30.71
41222;BME280;26952;42.884;23.918;2022-08-05T10:28:32;95805.03;;;32.09;31.82
41222;BME280;26952;42.884;23.918;2022-08-05T10:30:59;95798.72;;;32.44;30.27
41222;BME280;26952;42.884;23.918;2022-08-05T10:33:28;95802.34;;;31.82;29.95
41222;BME280;26952;42.884;23.918;2022-08-05T10:35:54;95797.72;;;32.18;30.39
41222;BME280;26952;42.884;23.918;2022-08-05T10:38:22;95795.09;;;32.13;29.98
41222;BME280;26952;42.884;23.918;2022-08-05T10:43:32;95792.41;;;32.21;29.73
41222;BME280;26952;42.884;23.918;2022-08-05T10:46:07;95795.56;;;32.73;28.35
41222;BME280;26952;42.884;23.918;2022-08-05T10:48:40;95791.31;;;33.58;28.56
41222;BME280;26952;42.884;23.918;2022-08-05T10:56:14;95783.34;;;33.96;26.95
41222;BME280;26952;42.884;23.918;2022-08-05T11:01:30;95774.44;;;34.67;27.28
41222;BME280;26952;42.884;23.918;2022-08-05T11:06:31;95770.69;;;34.89;26.85
41222;BME280;26952;42.884;23.918;2022-08-05T11:09:11;95771.00;;;35.34;27.36
41222;BME280;26952;42.884;23.918;2022-08-05T11:11:37;95765.84;;;35.32;24.79
41222;BME280;26952;42.884;23.918;2022-08-05T11:14:03;95766.63;;;34.95;24.86
41222;BME280;26952;42.884;23.918;2022-08-05T11:16:29;95761.25;;;34.98;24.99
41222;BME280;26952;42.884;23.918;2022-08-05T11:19:29;95768.78;;;34.47;26.38
41222;BME280;26952;42.884;23.918;2022-08-05T11:22:02;95752.47;;;32.95;27.82
41222;BME280;26952;42.884;23.918;2022-08-05T11:24:44;95762.34;;;32.30;28.48
41222;BME280;26952;42.884;23.918;2022-08-05T11:27:28;95776.94;;;31.27;29.88
41222;BME280;26952;42.884;23.918;2022-08-05T11:30:00;95769.13;;;31.21;30.01
41222;BME280;26952;42.884;23.918;2022-08-05T11:32:27;95765.38;;;31.17;30.64
41222;BME280;26952;42.884;23.918;2022-08-05T11:34:54;95768.22;;;30.98;30.15
41222;BME280;26952;42.884;23.918;2022-08-05T11:40:06;95760.50;;;31.27;30.53
41222;BME280;26952;42.884;23.918;2022-08-05T11:42:33;95762.63;;;31.44;29.99
41222;BME280;26952;42.884;23.918;2022-08-05T11:45:04;95759.53;;;31.37;30.17
41222;BME280;26952;42.884;23.918;2022-08-05T11:47:31;95753.03;;;31.33;29.37
41222;BME280;26952;42.884;23.918;2022-08-05T11:49:57;95753.44;;;31.40;29.07
41222;BME280;26952;42.884;23.918;2022-08-05T11:52:26;95736.28;;;31.48;32.01
41222;BME280;26952;42.884;23.918;2022-08-05T11:54:51;95745.41;;;31.92;30.04
41222;BME280;26952;42.884;23.918;2022-08-05T11:57:17;95744.41;;;32.46;29.28
41222;BME280;26952;42.884;23.918;2022-08-05T11:59:43;95736.28;;;32.63;27.93
41222;BME280;26952;42.884;23.918;2022-08-05T12:02:09;95729.97;;;33.24;27.16
41222;BME280;26952;42.884;23.918;2022-08-05T12:04:41;95731.47;;;32.99;26.95
41222;BME280;26952;42.884;23.918;2022-08-05T12:07:08;95728.50;;;33.18;27.70
41222;BME280;26952;42.884;23.918;2022-08-05T12:09:42;95736.19;;;33.46;27.82
41222;BME280;26952;42.884;23.918;2022-08-05T12:12:11;95728.59;;;33.04;27.96
41222;BME280;26952;42.884;23.918;2022-08-05T12:14:39;95728.06;;;33.33;26.93
41222;BME280;26952;42.884;23.918;2022-08-05T12:17:09;95717.38;;;33.96;28.67
41222;BME280;26952;42.884;23.918;2022-08-05T12:19:43;95727.25;;;34.06;26.79
41222;BME280;26952;42.884;23.918;2022-08-05T12:22:09;95729.47;;;33.78;26.56
41222;BME280;26952;42.884;23.918;2022-08-05T12:24:41;95726.19;;;33.50;26.79
41222;BME280;26952;42.884;23.918;2022-08-05T12:27:07;95730.41;;;33.09;26.99
41222;BME280;26952;42.884;23.918;2022-08-05T12:29:33;95729.03;;;32.89;27.30
41222;BME280;26952;42.884;23.918;2022-08-05T12:31:59;95736.97;;;32.99;27.67
41222;BME280;26952;42.884;23.918;2022-08-05T12:34:27;95727.75;;;33.34;28.42
41222;BME280;26952;42.884;23.918;2022-08-05T12:36:55;95713.44;;;33.46;26.36
41222;BME280;26952;42.884;23.918;2022-08-05T12:39:22;95711.91;;;33.40;25.98
41222;BME280;26952;42.884;23.918;2022-08-05T12:41:48;95717.13;;;33.41;26.90
41222;BME280;26952;42.884;23.918;2022-08-05T12:44:15;95716.13;;;33.37;27.08
41222;BME280;26952;42.884;23.918;2022-08-05T12:46:42;95709.44;;;33.13;26.72
41222;BME280;26952;42.884;23.918;2022-08-05T12:49:12;95687.78;;;33.11;25.70
41222;BME280;26952;42.884;23.918;2022-08-05T12:54:21;95688.41;;;33.64;25.91
41222;BME280;26952;42.884;23.918;2022-08-05T12:56:49;95687.63;;;33.98;25.57
41222;BME280;26952;42.884;23.918;2022-08-05T13:01:44;95692.59;;;33.53;26.04
41222;BME280;26952;42.884;23.918;2022-08-05T13:04:11;95693.09;;;33.90;26.25
41222;BME280;26952;42.884;23.918;2022-08-05T13:06:40;95689.09;;;32.83;26.80
41222;BME280;26952;42.884;23.918;2022-08-05T13:09:11;95676.84;;;33.20;26.88
41222;BME280;26952;42.884;23.918;2022-08-05T13:11:40;95690.03;;;33.65;26.57
41222;BME280;26952;42.884;23.918;2022-08-05T13:14:55;95679.75;;;33.23;26.42
41222;BME280;26952;42.884;23.918;2022-08-05T13:16:56;95690.56;;;33.20;27.65
41222;BME280;26952;42.884;23.918;2022-08-05T13:19:24;95675.81;;;33.63;27.17
41222;BME280;26952;42.884;23.918;2022-08-05T13:21:50;95675.34;;;33.96;25.32
41222;BME280;26952;42.884;23.918;2022-08-05T13:24:16;95677.56;;;33.51;26.29
41222;BME280;26952;42.884;23.918;2022-08-05T13:26:43;95668.03;;;33.57;25.75
41222;BME280;26952;42.884;23.918;2022-08-05T13:29:09;95670.28;;;32.90;27.08
41222;BME280;26952;42.884;23.918;2022-08-05T13:31:34;95681.34;;;32.77;28.05